Time;durP1;ratioP1;P1;durP2;ratioP2;P2;SDS_P1;SDS_P2;PMS_P1;PMS_P2;Temp;Humidity;BMP_temperature;BMP_pressure;BME280_temperature;BME280_humidity;BME280_pressure;Samples;Min_cycle;Max_cycle;Signal;HPM_P1;HPM_P2
2021/10/18 00:00:52;;;;;;;0.70;0.70;;;23.40;37.20;20.70;94376.00;;;;10349464;28;73593;-57
2021/10/18 00:05:53;;;;;;;1.05;0.80;;;23.30;37.10;20.70;94373.00;;;;10350563;28;46045;-58
2021/10/18 00:10:54;;;;;;;1.27;0.80;;;23.30;37.10;20.70;94366.00;;;;10349011;28;75525;-58
2021/10/18 00:15:54;;;;;;;1.02;0.88;;;23.30;37.10;20.70;94369.00;;;;10348144;28;69757;-59
2021/10/18 00:20:56;;;;;;;1.23;0.70;;;23.30;37.10;20.70;94377.00;;;;10349519;28;52622;-58
2021/10/18 00:25:56;;;;;;;1.10;0.90;;;23.30;37.10;20.70;94380.00;;;;10349760;28;54913;-59
2021/10/18 00:30:57;;;;;;;1.50;1.00;;;23.30;37.10;20.70;94372.00;;;;10349038;28;73620;-57
2021/10/18 00:35:58;;;;;;;1.27;0.90;;;23.30;37.10;20.70;94370.00;;;;10347342;28;74313;-59
2021/10/18 00:40:59;;;;;;;0.70;0.63;;;23.30;37.20;20.70;94370.00;;;;10363432;22;73994;-61
2021/10/18 00:46:00;;;;;;;1.70;0.90;;;23.30;37.30;20.70;94378.00;;;;10338325;28;45695;-61
2021/10/18 00:51:01;;;;;;;1.40;0.90;;;23.30;37.10;20.70;94358.00;;;;10356089;28;45426;-61
2021/10/18 00:56:02;;;;;;;1.25;0.77;;;23.30;37.20;20.70;94377.00;;;;10337521;28;75633;-61
2021/10/18 01:01:03;;;;;;;0.65;0.63;;;23.30;37.10;20.70;94370.00;;;;10332640;28;56999;-61
2021/10/18 01:06:04;;;;;;;1.33;0.90;;;23.30;37.20;20.70;94365.00;;;;10334653;28;75622;-61
2021/10/18 01:11:06;;;;;;;1.30;0.90;;;23.30;37.20;20.70;94378.00;;;;10336901;28;75105;-61
2021/10/18 01:16:07;;;;;;;1.50;0.80;;;23.30;37.20;20.70;94367.00;;;;10321512;28;48129;-61
2021/10/18 01:21:08;;;;;;;1.13;0.90;;;23.20;37.20;20.70;94372.00;;;;10321378;28;47897;-61
2021/10/18 01:26:09;;;;;;;1.30;0.85;;;23.30;37.20;20.60;94372.00;;;;10338518;28;45964;-62
2021/10/18 01:31:10;;;;;;;1.08;0.80;;;23.20;37.10;20.70;94365.00;;;;10337437;28;74428;-62
2021/10/18 01:36:10;;;;;;;1.10;0.82;;;23.20;37.00;20.70;94367.00;;;;10355745;28;46298;-61
2021/10/18 01:41:11;;;;;;;0.90;0.80;;;23.30;37.20;20.70;94373.00;;;;10336008;28;75525;-61
2021/10/18 01:46:12;;;;;;;0.80;0.60;;;23.20;37.10;20.70;94356.00;;;;10354511;28;52340;-61
2021/10/18 01:51:13;;;;;;;0.95;0.70;;;23.20;37.00;20.70;94373.00;;;;10319851;28;57181;-61
2021/10/18 01:56:13;;;;;;;1.05;0.80;;;23.20;37.10;20.70;94372.00;;;;10319883;28;47522;-61
2021/10/18 02:01:14;;;;;;;1.15;0.80;;;23.20;37.10;20.70;94373.00;;;;10336837;28;50781;-61
2021/10/18 02:06:15;;;;;;;1.00;0.80;;;23.20;37.00;20.60;94375.00;;;;10337515;28;47514;-61
2021/10/18 02:11:16;;;;;;;1.40;0.80;;;23.30;37.10;20.60;94372.00;;;;10337525;28;45354;-61
2021/10/18 02:16:16;;;;;;;1.00;0.90;;;23.20;37.10;20.70;94385.00;;;;10355104;28;46020;-61
2021/10/18 02:21:17;;;;;;;1.27;0.90;;;23.30;37.10;20.70;94375.00;;;;10353623;28;75405;-61
2021/10/18 02:26:18;;;;;;;0.65;0.63;;;23.20;37.00;20.60;94377.00;;;;10335577;28;45664;-61
2021/10/18 02:31:19;;;;;;;1.63;1.00;;;23.20;37.00;20.60;94354.00;;;;10318602;28;74543;-61
2021/10/18 02:36:20;;;;;;;2.03;1.10;;;23.20;37.00;20.60;94355.00;;;;10319666;28;47038;-61
2021/10/18 02:41:21;;;;;;;1.23;0.90;;;23.20;36.90;20.60;94370.00;;;;10333897;28;74506;-61
2021/10/18 02:46:21;;;;;;;1.00;0.70;;;23.30;37.00;20.60;94361.00;;;;10352761;28;45989;-61
2021/10/18 02:51:22;;;;;;;1.98;0.82;;;23.20;36.90;20.60;94348.00;;;;10335219;28;46463;-62
2021/10/18 02:56:22;;;;;;;1.60;0.90;;;23.20;36.90;20.60;94353.00;;;;10352475;28;75624;-62
2021/10/18 03:01:23;;;;;;;1.38;0.80;;;23.20;36.90;20.60;94361.00;;;;10334803;28;64358;-61
2021/10/18 03:06:24;;;;;;;1.40;0.82;;;23.20;36.80;20.60;94361.00;;;;10335208;28;46203;-61
2021/10/18 03:11:25;;;;;;;1.23;0.82;;;23.20;36.90;20.60;94363.00;;;;10351897;28;70560;-61
2021/10/18 03:16:26;;;;;;;1.55;0.85;;;23.20;36.90;20.60;94359.00;;;;10335055;28;45592;-61
2021/10/18 03:21:27;;;;;;;1.08;0.80;;;23.20;36.90;20.60;94371.00;;;;10317607;28;47511;-61
2021/10/18 03:26:27;;;;;;;1.65;0.90;;;23.20;36.70;20.60;94376.00;;;;10317581;28;48452;-60
2021/10/18 03:31:28;;;;;;;1.42;0.73;;;23.20;36.90;20.60;94360.00;;;;10316393;28;75600;-62
2021/10/18 03:36:29;;;;;;;1.20;0.90;;;23.20;36.70;20.60;94391.00;;;;10333103;28;75616;-62
2021/10/18 03:41:29;;;;;;;1.55;0.95;;;23.20;36.80;20.60;94395.00;;;;10316646;28;48898;-62
2021/10/18 03:46:30;;;;;;;1.27;0.80;;;23.20;36.70;20.60;94390.00;;;;10333132;28;68936;-61
2021/10/18 03:51:32;;;;;;;1.20;0.80;;;23.20;36.70;20.60;94397.00;;;;10333204;28;69367;-62
2021/10/18 03:56:32;;;;;;;0.90;0.70;;;23.20;36.70;20.60;94387.00;;;;10334315;28;46085;-61
2021/10/18 04:01:33;;;;;;;0.93;0.75;;;23.20;36.60;20.60;94409.00;;;;10333793;28;45590;-62
2021/10/18 04:06:34;;;;;;;0.70;0.60;;;23.20;36.50;20.60;94403.00;;;;10316352;28;47988;-61
2021/10/18 04:11:38;;;;;;;1.65;0.80;;;23.10;36.50;20.60;94423.00;;;;10331686;28;75773;-61
2021/10/18 04:16:39;;;;;;;1.58;0.70;;;23.20;36.60;20.70;94426.00;;;;10316766;28;47072;-61
2021/10/18 04:21:40;;;;;;;1.13;0.60;;;23.20;36.60;20.70;94420.00;;;;10339065;28;76197;-61
2021/10/18 04:26:41;;;;;;;0.70;0.57;;;23.30;36.50;20.70;94428.00;;;;10334996;28;58484;-61
2021/10/18 04:31:41;;;;;;;0.80;0.50;;;23.30;36.40;20.70;94432.00;;;;10353576;28;45653;-61
2021/10/18 04:36:42;;;;;;;1.08;0.50;;;23.30;36.30;20.70;94445.00;;;;10350600;28;74449;-62
2021/10/18 04:41:43;;;;;;;0.90;0.70;;;23.30;36.30;20.70;94434.00;;;;10334559;28;75726;-62
2021/10/18 04:46:44;;;;;;;0.80;0.60;;;23.40;36.20;20.80;94449.00;;;;10356628;28;51131;-61
2021/10/18 04:51:45;;;;;;;0.82;0.40;;;23.40;36.30;20.80;94447.00;;;;10356703;28;45296;-60
2021/10/18 04:56:46;;;;;;;0.73;0.52;;;23.40;36.20;20.80;94458.00;;;;10322585;28;47371;-61
2021/10/18 05:01:46;;;;;;;1.08;0.65;;;23.40;36.10;20.80;94456.00;;;;10354938;28;74941;-62
2021/10/18 05:06:47;;;;;;;0.70;0.50;;;23.40;36.10;20.80;94461.00;;;;10354116;28;75681;-62
2021/10/18 05:11:48;;;;;;;0.85;0.60;;;23.40;35.90;20.80;94468.00;;;;10320798;28;75076;-61
2021/10/18 05:16:50;;;;;;;0.98;0.50;;;23.40;35.90;20.80;94462.00;;;;10337073;28;75246;-61
2021/10/18 05:21:51;;;;;;;0.73;0.50;;;23.50;35.90;20.90;94471.00;;;;10355827;28;45324;-61
2021/10/18 05:26:52;;;;;;;0.80;0.63;;;23.50;35.80;20.90;94476.00;;;;10336520;28;74011;-61
2021/10/18 05:31:52;;;;;;;1.35;0.65;;;23.50;35.80;20.90;94474.00;;;;10337845;28;47200;-62
2021/10/18 05:36:53;;;;;;;0.55;0.50;;;23.50;35.90;20.90;94474.00;;;;10337395;28;45676;-59
2021/10/18 05:41:54;;;;;;;0.50;0.50;;;23.50;35.70;20.90;94471.00;;;;10344738;28;72912;-61
2021/10/18 05:46:54;;;;;;;0.95;0.55;;;23.50;35.70;20.90;94485.00;;;;10352761;28;73376;-61
2021/10/18 05:51:56;;;;;;;1.42;0.70;;;23.50;35.60;20.90;94497.00;;;;10353597;28;73726;-61
2021/10/18 05:56:56;;;;;;;1.67;0.60;;;23.50;35.40;20.90;94483.00;;;;10354243;28;45432;-61
2021/10/18 06:01:57;;;;;;;0.65;0.50;;;23.50;35.60;20.90;94509.00;;;;10355110;28;45565;-60
2021/10/18 06:06:58;;;;;;;0.80;0.60;;;23.60;35.70;20.90;94500.00;;;;10352411;28;74085;-62
2021/10/18 06:11:59;;;;;;;0.93;0.75;;;23.60;35.60;20.90;94517.00;;;;10353687;28;75599;-61
2021/10/18 06:16:59;;;;;;;2.88;0.90;;;23.60;35.70;21.00;94513.00;;;;10351669;28;75656;-63
2021/10/18 06:22:00;;;;;;;0.98;0.70;;;23.60;35.60;21.00;94520.00;;;;10353595;28;75866;-61
2021/10/18 06:27:01;;;;;;;1.48;1.00;;;23.60;35.50;21.00;94519.00;;;;10352823;28;45340;-61
2021/10/18 06:32:02;;;;;;;1.83;1.08;;;23.60;35.50;21.00;94514.00;;;;10353430;28;73279;-61
2021/10/18 06:37:03;;;;;;;1.73;1.17;;;23.70;35.40;21.00;94518.00;;;;10352868;28;47340;-60
2021/10/18 06:42:04;;;;;;;1.88;1.27;;;23.60;35.40;21.00;94537.00;;;;10351008;28;45387;-61
2021/10/18 06:47:04;;;;;;;2.85;1.30;;;23.60;35.30;21.00;94548.00;;;;10353164;28;45585;-62
2021/10/18 06:52:06;;;;;;;3.30;1.58;;;23.60;35.40;21.00;94559.00;;;;10351209;28;61908;-61
2021/10/18 06:57:06;;;;;;;2.95;1.33;;;23.70;35.50;21.00;94543.00;;;;10351411;28;46311;-61
2021/10/18 07:02:07;;;;;;;2.30;1.23;;;23.70;35.20;21.00;94572.00;;;;10334847;28;47309;-62
2021/10/18 07:07:08;;;;;;;3.17;1.60;;;23.70;35.20;21.00;94569.00;;;;10352768;28;46355;-60
2021/10/18 07:12:12;;;;;;;2.42;1.27;;;23.60;35.10;21.00;94571.00;;;;10350536;28;74584;-61
2021/10/18 07:17:12;;;;;;;1.65;1.20;;;23.70;35.20;21.00;94566.00;;;;10332950;28;74700;-61
2021/10/18 07:22:13;;;;;;;2.33;1.20;;;23.70;35.00;21.00;94572.00;;;;10349475;28;74381;-61
2021/10/18 07:27:14;;;;;;;2.25;1.35;;;23.70;35.00;21.00;94581.00;;;;10348996;28;75601;-61
2021/10/18 07:32:14;;;;;;;2.25;1.30;;;23.70;35.10;21.00;94583.00;;;;10349745;28;47122;-61
2021/10/18 07:37:18;;;;;;;2.17;1.13;;;23.70;35.00;21.10;94601.00;;;;10350251;28;73270;-61
2021/10/18 07:42:19;;;;;;;1.85;1.10;;;23.70;34.90;21.10;94606.00;;;;10350347;28;46030;-61
2021/10/18 07:47:21;;;;;;;1.75;1.10;;;23.70;35.00;21.10;94607.00;;;;10348354;28;73607;-61
2021/10/18 07:52:22;;;;;;;3.75;1.50;;;23.70;35.00;21.00;94604.00;;;;10349378;28;51445;-61
2021/10/18 07:57:23;;;;;;;1.70;1.10;;;23.70;34.80;21.10;94613.00;;;;10316330;28;51557;-61
2021/10/18 08:02:24;;;;;;;2.40;1.10;;;23.70;35.00;21.10;94623.00;;;;10332727;28;47351;-61
2021/10/18 08:07:29;;;;;;;3.67;0.93;;;23.70;35.60;21.30;94628.00;;;;10332961;28;51691;-64
2021/10/18 08:12:29;;;;;;;2.17;1.33;;;23.80;35.60;20.70;94616.00;;;;10350611;28;46578;-62
2021/10/18 08:17:30;;;;;;;2.83;0.95;;;23.50;34.60;20.90;94615.00;;;;10316790;28;47207;-64
2021/10/18 08:22:31;;;;;;;1.58;0.93;;;23.60;35.00;21.10;94607.00;;;;10316788;28;48287;-64
2021/10/18 08:27:31;;;;;;;3.55;0.90;;;23.70;35.50;21.10;94627.00;;;;10332949;28;47768;-60
2021/10/18 08:32:33;;;;;;;1.08;0.73;;;23.80;35.70;21.20;94617.00;;;;10349874;28;47562;-61
2021/10/18 08:43:12;;;;;;;1.48;0.80;;;23.80;35.50;21.10;94623.00;;;;10346859;28;45393;-61
2021/10/18 08:48:13;;;;;;;1.50;0.80;;;23.70;35.30;21.10;94617.00;;;;10334473;28;46315;-61
2021/10/18 08:53:14;;;;;;;2.10;0.80;;;23.80;35.30;21.10;94615.00;;;;10331940;28;45595;-61
2021/10/18 08:58:16;;;;;;;2.33;1.00;;;23.80;35.30;21.10;94627.00;;;;10331444;28;45577;-62
2021/10/18 09:03:28;;;;;;;2.45;1.00;;;23.80;35.20;21.20;94617.00;;;;10332061;28;45484;-62
2021/10/18 09:08:38;;;;;;;1.80;0.70;;;23.80;35.40;21.20;94623.00;;;;10356613;28;45317;-60
2021/10/18 09:13:51;;;;;;;2.20;0.80;;;23.80;35.40;21.20;94623.00;;;;10338132;28;45776;-59
2021/10/18 09:19:23;;;;;;;1.20;0.82;;;23.80;35.50;21.20;94619.00;;;;10355905;28;45396;-58
2021/10/18 09:24:29;;;;;;;1.17;0.77;;;23.80;35.50;21.20;94632.00;;;;10338078;28;46417;-59
2021/10/18 09:30:03;;;;;;;2.05;0.80;;;23.80;35.50;21.20;94619.00;;;;10337590;28;46742;-59
2021/10/18 09:35:11;;;;;;;1.63;0.93;;;23.80;35.60;21.20;94622.00;;;;10290483;28;54075;-58
2021/10/18 09:40:33;;;;;;;1.02;0.70;;;23.80;35.60;21.20;94628.00;;;;10338176;28;46353;-60
2021/10/18 09:45:36;;;;;;;1.60;0.70;;;23.80;35.70;21.10;94643.00;;;;10337587;28;45349;-58
2021/10/18 10:54:47;;;;;;;;;;;23.90;36.40;21.30;94614.00;;;;10353503;28;45635;-58
2021/10/18 10:59:53;;;;;;;2.20;1.20;;;23.90;36.40;21.30;94629.00;;;;10350601;28;75718;-57
2021/10/18 11:04:54;;;;;;;;;;;24.00;37.20;21.30;94620.00;;;;10353322;28;45381;-58
2021/10/18 11:09:57;;;;;;;2.83;1.30;;;23.90;36.50;21.30;94619.00;;;;10352123;28;46326;-57
2021/10/18 11:15:09;;;;;;;2.55;1.48;;;24.00;36.50;21.30;94615.00;;;;10332284;28;47028;-58
2021/10/18 11:20:17;;;;;;;1.77;1.00;;;24.00;36.60;21.40;94616.00;;;;10341671;28;54187;-58
2021/10/18 11:25:31;;;;;;;2.28;1.30;;;24.00;36.70;21.40;94596.00;;;;10342793;28;55383;-58
2021/10/18 11:30:35;;;;;;;2.10;1.10;;;24.00;36.80;21.40;94605.00;;;;10347905;28;45595;-58
2021/10/18 11:35:36;;;;;;;2.63;1.30;;;24.00;36.80;21.40;94605.00;;;;10349893;28;51760;-58
2021/10/18 11:40:50;;;;;;;2.22;1.00;;;24.00;36.90;21.40;94584.00;;;;10351128;28;45395;-57
2021/10/18 11:45:54;;;;;;;1.77;1.13;;;24.00;36.80;21.40;94600.00;;;;10351065;28;45386;-57
2021/10/18 11:51:02;;;;;;;2.10;1.40;;;24.00;36.80;21.30;94592.00;;;;10342194;28;45352;-56
2021/10/18 11:56:03;;;;;;;1.48;1.08;;;24.00;37.00;21.40;94584.00;;;;10334291;28;46625;-58
2021/10/18 12:01:06;;;;;;;2.10;1.40;;;24.00;37.00;21.40;94585.00;;;;10333993;28;45432;-58
2021/10/18 12:06:10;;;;;;;2.13;1.17;;;24.00;36.90;21.40;94574.00;;;;10333177;28;46442;-58
2021/10/18 12:11:15;;;;;;;1.15;1.05;;;24.00;37.00;21.40;94580.00;;;;10351358;28;45338;-57
2021/10/18 12:16:20;;;;;;;1.83;1.13;;;24.00;37.00;21.40;94581.00;;;;10333484;28;45438;-58
2021/10/18 12:21:31;;;;;;;1.77;1.15;;;24.00;37.70;21.40;94569.00;;;;10332675;28;45411;-58
2021/10/18 12:26:48;;;;;;;1.45;1.10;;;24.00;37.00;21.40;94566.00;;;;10333138;28;45453;-58
2021/10/18 12:31:54;;;;;;;1.90;1.50;;;24.10;37.10;21.40;94570.00;;;;10332099;28;45628;-58
2021/10/18 12:37:05;;;;;;;3.50;1.67;;;24.10;37.00;21.40;94563.00;;;;10332128;28;45519;-57
2021/10/18 12:42:15;;;;;;;3.75;1.75;;;24.00;37.20;21.40;94554.00;;;;10298158;28;45620;-59
2021/10/18 12:47:24;;;;;;;2.67;1.80;;;24.00;37.10;21.40;94564.00;;;;10301269;28;51890;-56
2021/10/18 12:52:27;;;;;;;4.00;1.65;;;24.10;37.30;21.40;94565.00;;;;10340703;28;46452;-59
2021/10/18 12:57:30;;;;;;;2.03;1.40;;;24.00;37.50;21.50;94563.00;;;;10354990;28;45377;-56
2021/10/18 13:02:39;;;;;;;2.03;1.50;;;24.00;37.30;21.50;94543.00;;;;10334357;28;45409;-56
2021/10/18 13:07:41;;;;;;;4.15;1.58;;;24.10;37.40;21.50;94550.00;;;;10338738;28;45656;-57
2021/10/18 13:12:44;;;;;;;2.63;1.80;;;24.10;37.40;21.50;94534.00;;;;10356559;28;45309;-58
2021/10/18 13:17:47;;;;;;;2.65;1.50;;;24.10;37.50;21.40;94547.00;;;;10338534;28;45373;-58
2021/10/18 13:22:48;;;;;;;2.83;1.45;;;24.10;37.50;21.40;94537.00;;;;10339029;28;45288;-58
2021/10/18 13:27:49;;;;;;;1.67;1.27;;;24.10;37.60;21.40;94529.00;;;;10339299;28;45379;-58
2021/10/18 13:32:50;;;;;;;2.00;1.42;;;24.00;37.60;21.40;94538.00;;;;10338379;28;45412;-59
2021/10/18 13:37:52;;;;;;;2.65;1.40;;;24.00;37.60;21.40;94536.00;;;;10338373;28;45481;-58
2021/10/18 13:42:54;;;;;;;1.88;1.50;;;24.00;37.60;21.40;94530.00;;;;10338066;28;51347;-58
2021/10/18 13:47:55;;;;;;;3.08;1.63;;;24.00;37.70;21.30;94535.00;;;;10337294;28;47301;-57
2021/10/18 13:52:56;;;;;;;2.25;1.42;;;24.00;37.60;21.30;94551.00;;;;10340507;28;75538;-57
2021/10/18 13:57:57;;;;;;;1.73;1.30;;;24.00;37.60;21.30;94551.00;;;;10344693;28;45648;-58
2021/10/18 14:02:58;;;;;;;2.38;1.33;;;24.00;37.60;21.40;94543.00;;;;10354108;28;75205;-58
2021/10/18 14:07:58;;;;;;;2.38;1.35;;;24.00;37.70;21.40;94552.00;;;;10335943;28;73065;-58
2021/10/18 14:12:59;;;;;;;1.80;1.42;;;24.00;37.70;21.30;94545.00;;;;10335973;28;75612;-58
2021/10/18 14:18:00;;;;;;;2.35;1.48;;;24.00;37.80;21.30;94544.00;;;;10353156;28;75483;-59
2021/10/18 14:23:00;;;;;;;1.85;1.30;;;23.90;37.80;21.40;94558.00;;;;10335206;28;75309;-57
2021/10/18 14:28:03;;;;;;;3.08;1.25;;;24.00;37.80;21.30;94548.00;;;;10331016;28;75573;-57
2021/10/18 14:33:04;;;;;;;2.33;1.50;;;24.00;38.50;21.30;94548.00;;;;10350550;28;45682;-57
2021/10/18 14:38:04;;;;;;;2.42;1.50;;;23.90;37.80;21.30;94543.00;;;;10331392;28;74546;-57
2021/10/18 14:43:05;;;;;;;2.00;1.50;;;23.90;37.90;21.30;94545.00;;;;10330534;28;73393;-57
2021/10/18 14:48:06;;;;;;;1.77;1.30;;;23.90;37.90;21.30;94552.00;;;;10334893;28;66451;-57
2021/10/18 14:53:09;;;;;;;2.35;1.45;;;23.90;37.90;21.40;94553.00;;;;10334118;28;59260;-58
2021/10/18 14:58:12;;;;;;;2.50;1.30;;;23.90;38.30;21.40;94558.00;;;;10335198;28;45342;-57
2021/10/18 15:03:12;;;;;;;3.55;1.58;;;24.00;38.20;21.30;94561.00;;;;10333787;28;45583;-58
2021/10/18 15:08:13;;;;;;;2.78;1.50;;;23.90;38.20;21.30;94551.00;;;;10334801;28;55328;-57
2021/10/18 15:13:14;;;;;;;2.20;1.35;;;23.90;38.30;21.40;94544.00;;;;10352298;28;46271;-57
2021/10/18 15:18:14;;;;;;;1.65;1.20;;;23.90;38.20;21.30;94548.00;;;;10333371;28;75461;-58
2021/10/18 15:23:15;;;;;;;2.10;1.50;;;23.90;38.30;21.30;94552.00;;;;10333710;28;68116;-58
2021/10/18 15:28:16;;;;;;;5.57;1.42;;;23.90;38.40;21.40;94549.00;;;;10334441;28;46610;-58
2021/10/18 15:33:17;;;;;;;4.20;1.52;;;23.90;38.40;21.40;94559.00;;;;10333960;28;48588;-58
2021/10/18 15:38:17;;;;;;;2.65;1.65;;;23.90;38.40;21.30;94554.00;;;;10333832;28;68111;-59
2021/10/18 15:43:18;;;;;;;1.92;1.30;;;23.90;38.50;21.30;94546.00;;;;10332987;28;45443;-58
2021/10/18 15:48:22;;;;;;;2.03;1.30;;;23.90;38.50;21.30;94549.00;;;;10346208;28;64209;-58
2021/10/18 15:53:24;;;;;;;3.88;1.55;;;23.90;38.50;21.30;94542.00;;;;10331402;28;46397;-60
2021/10/18 15:58:25;;;;;;;2.00;1.48;;;23.90;38.60;21.40;94542.00;;;;10348926;28;45469;-58
2021/10/18 16:03:26;;;;;;;2.22;1.40;;;24.00;38.60;21.40;94551.00;;;;10345388;28;75501;-58
2021/10/18 16:08:27;;;;;;;2.40;1.58;;;23.90;38.60;21.40;94549.00;;;;10348679;28;45434;-58
2021/10/18 16:13:28;;;;;;;1.90;1.30;;;23.90;38.60;21.30;94560.00;;;;10349794;28;46326;-58
2021/10/18 16:18:29;;;;;;;1.60;1.20;;;23.90;38.70;21.30;94555.00;;;;10348568;28;53911;-59
2021/10/18 16:23:29;;;;;;;2.20;1.30;;;23.90;38.80;21.40;94536.00;;;;10349958;28;74590;-60
2021/10/18 16:28:30;;;;;;;2.42;1.67;;;23.90;38.60;21.40;94545.00;;;;10351033;28;46108;-58
2021/10/18 16:33:31;;;;;;;3.03;1.55;;;23.90;38.70;21.40;94552.00;;;;10348834;28;46204;-58
2021/10/18 16:38:32;;;;;;;3.03;1.40;;;23.90;38.80;21.40;94539.00;;;;10350466;28;45440;-59
2021/10/18 16:43:32;;;;;;;3.72;1.92;;;24.00;39.00;21.40;94528.00;;;;10348265;28;52409;-66
2021/10/18 16:48:33;;;;;;;5.03;2.88;;;24.00;39.30;21.40;94533.00;;;;10346032;28;45460;-64
2021/10/18 16:53:34;;;;;;;6.22;3.35;;;24.10;39.30;21.50;94541.00;;;;10349025;28;74557;-66
2021/10/18 16:58:35;;;;;;;7.65;3.80;;;24.10;39.40;21.50;94543.00;;;;10349924;28;74551;-66
2021/10/18 17:03:36;;;;;;;7.35;3.78;;;24.10;39.50;21.50;94562.00;;;;10349219;28;75344;-64
2021/10/18 17:08:38;;;;;;;7.15;4.00;;;24.20;39.60;21.60;94580.00;;;;10343427;28;73631;-64
2021/10/18 17:13:39;;;;;;;6.03;3.33;;;24.20;40.00;21.60;94564.00;;;;10347703;28;74099;-63
2021/10/18 17:18:40;;;;;;;6.05;3.40;;;24.20;39.70;21.60;94552.00;;;;10312289;28;75239;-63
2021/10/18 17:23:40;;;;;;;7.85;3.42;;;24.20;39.50;21.60;94572.00;;;;10337565;28;75658;-62
2021/10/18 17:28:41;;;;;;;5.40;3.20;;;24.20;39.50;21.60;94570.00;;;;10343363;28;74526;-60
2021/10/18 17:33:42;;;;;;;6.72;3.70;;;24.20;39.50;21.60;94581.00;;;;10346273;28;45397;-63
2021/10/18 17:38:43;;;;;;;5.45;3.25;;;24.20;39.50;21.60;94589.00;;;;10325751;28;48204;-64
2021/10/18 17:43:45;;;;;;;5.50;3.10;;;24.30;39.70;21.70;94591.00;;;;10346547;28;45440;-63
2021/10/18 17:48:46;;;;;;;4.50;2.92;;;24.30;39.60;21.70;94599.00;;;;10350503;28;46438;-65
2021/10/18 17:53:46;;;;;;;4.22;2.47;;;24.30;39.50;21.70;94608.00;;;;10326190;28;47968;-59
2021/10/18 17:58:47;;;;;;;4.68;2.30;;;24.30;39.40;21.70;94596.00;;;;10322160;28;47251;-63
2021/10/18 18:03:48;;;;;;;4.03;2.42;;;24.30;39.30;21.70;94614.00;;;;10317951;28;75252;-65
2021/10/18 18:08:50;;;;;;;3.58;2.28;;;24.30;39.40;21.70;94606.00;;;;10353275;28;53078;-68
2021/10/18 18:13:51;;;;;;;4.82;2.53;;;24.30;39.30;21.70;94609.00;;;;10334448;28;48266;-67
2021/10/18 18:18:51;;;;;;;4.03;2.08;;;24.30;39.30;21.70;94605.00;;;;10351076;28;73884;-59
2021/10/18 18:23:52;;;;;;;4.53;2.05;;;24.30;39.30;21.70;94594.00;;;;10352077;28;59073;-59
2021/10/18 18:28:54;;;;;;;2.92;1.98;;;24.30;39.00;21.60;94596.00;;;;10352159;28;62948;-59
2021/10/18 18:33:55;;;;;;;2.92;2.03;;;24.30;38.80;21.60;94605.00;;;;10352330;28;46145;-60
2021/10/18 18:38:55;;;;;;;2.95;2.00;;;24.20;38.80;21.60;94617.00;;;;10351497;28;45372;-59
2021/10/18 18:43:56;;;;;;;2.97;2.00;;;24.20;38.70;21.60;94617.00;;;;10352669;28;58348;-59
2021/10/18 18:48:57;;;;;;;2.83;1.90;;;24.20;38.60;21.60;94625.00;;;;10352226;28;45362;-59
2021/10/18 18:53:59;;;;;;;3.50;2.40;;;24.20;39.30;21.50;94619.00;;;;10353492;28;46021;-59
2021/10/18 18:59:00;;;;;;;2.85;2.00;;;24.20;38.50;21.60;94609.00;;;;10352071;28;45338;-59
2021/10/18 19:04:01;;;;;;;3.03;1.85;;;24.20;38.50;21.60;94619.00;;;;10350619;28;73993;-59
2021/10/18 19:09:01;;;;;;;2.72;1.98;;;24.20;38.50;21.60;94645.00;;;;10351398;28;75531;-59
2021/10/18 19:14:02;;;;;;;2.65;1.83;;;24.20;38.30;21.60;94639.00;;;;10350308;28;74797;-59
2021/10/18 19:19:03;;;;;;;3.13;2.17;;;24.10;38.20;21.50;94658.00;;;;10350865;28;75423;-59
2021/10/18 19:24:04;;;;;;;3.80;2.10;;;24.10;38.20;21.50;94658.00;;;;10351445;28;75437;-59
2021/10/18 19:29:07;;;;;;;3.22;2.05;;;24.20;38.20;21.60;94648.00;;;;10351424;28;45306;-59
2021/10/18 19:34:08;;;;;;;2.85;2.05;;;24.20;38.30;21.60;94651.00;;;;10352394;28;45462;-59
2021/10/18 19:39:10;;;;;;;3.53;2.33;;;24.20;38.20;21.50;94638.00;;;;10350874;28;74446;-59
2021/10/18 19:44:11;;;;;;;2.75;1.92;;;24.20;38.20;21.60;94653.00;;;;10350610;28;45925;-59
2021/10/18 19:49:11;;;;;;;2.92;2.00;;;24.20;38.20;21.60;94649.00;;;;10347952;28;75343;-59
2021/10/18 19:54:12;;;;;;;2.92;1.95;;;24.20;38.20;21.60;94641.00;;;;10332525;28;63920;-59
2021/10/18 19:59:13;;;;;;;3.50;2.15;;;24.10;38.10;21.50;94638.00;;;;10333674;28;45409;-59
2021/10/18 20:04:14;;;;;;;2.90;1.80;;;24.20;38.10;21.60;94657.00;;;;10331809;28;74411;-59
2021/10/18 20:09:14;;;;;;;2.47;1.80;;;24.10;38.10;21.50;94652.00;;;;10331643;28;75541;-59
2021/10/18 20:14:15;;;;;;;2.78;1.77;;;24.20;38.00;21.60;94639.00;;;;10326957;28;75620;-59
2021/10/18 20:19:16;;;;;;;2.50;1.60;;;24.20;38.10;21.50;94640.00;;;;10349357;28;45561;-59
2021/10/18 20:24:18;;;;;;;3.28;1.92;;;24.10;37.90;21.50;94649.00;;;;10315781;28;75427;-63
2021/10/18 20:29:18;;;;;;;2.53;1.80;;;24.10;38.00;21.50;94660.00;;;;10331454;28;74340;-61
2021/10/18 20:34:19;;;;;;;2.50;1.58;;;24.10;38.00;21.40;94650.00;;;;10349785;28;60818;-59
2021/10/18 20:39:20;;;;;;;3.03;1.83;;;24.10;38.00;21.40;94664.00;;;;10332667;28;45357;-60
2021/10/18 20:44:21;;;;;;;2.42;1.70;;;24.10;38.00;21.40;94657.00;;;;10331210;28;71394;-60
2021/10/18 20:49:22;;;;;;;2.28;1.58;;;24.00;37.90;21.40;94664.00;;;;10316264;28;48827;-59
2021/10/18 20:54:23;;;;;;;2.45;1.60;;;24.10;37.90;21.40;94665.00;;;;10331117;28;74379;-59
2021/10/18 20:59:23;;;;;;;2.40;1.65;;;24.00;37.80;21.40;94660.00;;;;10349543;28;74187;-59
2021/10/18 21:04:25;;;;;;;2.35;1.52;;;24.00;37.80;21.30;94675.00;;;;10339787;28;47814;-59
2021/10/18 21:09:26;;;;;;;2.50;1.73;;;23.80;37.70;21.30;94678.00;;;;10339699;28;45370;-60
2021/10/18 21:14:27;;;;;;;1.98;1.38;;;23.90;37.80;21.30;94681.00;;;;10355251;28;74207;-61
2021/10/18 21:19:28;;;;;;;2.10;1.38;;;23.90;37.70;21.30;94693.00;;;;10354956;28;73348;-59
2021/10/18 21:24:29;;;;;;;2.05;1.30;;;23.90;37.70;21.30;94680.00;;;;10337436;28;58959;-59
2021/10/18 21:29:29;;;;;;;2.10;1.40;;;23.90;37.70;21.30;94701.00;;;;10337845;28;53775;-59
2021/10/18 21:34:30;;;;;;;2.35;1.45;;;23.90;37.70;21.20;94694.00;;;;10337014;28;75265;-60
2021/10/18 21:39:31;;;;;;;1.73;1.25;;;23.90;37.60;21.20;94703.00;;;;10337314;28;74143;-60
2021/10/18 21:44:31;;;;;;;2.10;1.40;;;23.90;37.70;21.20;94689.00;;;;10354316;28;74622;-60
2021/10/18 21:49:32;;;;;;;1.50;1.10;;;23.90;37.60;21.20;94689.00;;;;10355327;28;46189;-59
2021/10/18 21:54:34;;;;;;;2.05;1.30;;;23.80;37.50;21.10;94700.00;;;;10355157;28;45444;-59
2021/10/18 21:59:35;;;;;;;1.77;1.30;;;23.80;37.50;21.20;94696.00;;;;10337270;28;45446;-59
2021/10/18 22:04:36;;;;;;;1.95;1.25;;;23.80;37.50;21.20;94693.00;;;;10337465;28;49041;-60
2021/10/18 22:09:37;;;;;;;1.65;1.30;;;23.80;37.40;21.20;94703.00;;;;10353369;28;75400;-58
2021/10/18 22:14:38;;;;;;;1.10;1.00;;;23.80;37.40;21.20;94682.00;;;;10334785;28;57691;-60
2021/10/18 22:19:39;;;;;;;1.77;1.10;;;23.80;37.40;21.20;94702.00;;;;10353718;28;46475;-59
2021/10/18 22:24:40;;;;;;;1.70;1.10;;;23.80;37.40;21.10;94694.00;;;;10335836;28;47141;-60
2021/10/18 22:29:41;;;;;;;0.88;0.82;;;23.80;37.30;21.10;94701.00;;;;10335096;28;75450;-58
2021/10/18 22:34:41;;;;;;;2.33;1.08;;;23.80;37.30;21.10;94697.00;;;;10335016;28;75058;-58
2021/10/18 22:39:42;;;;;;;1.60;1.10;;;23.80;37.30;21.10;94696.00;;;;10352770;28;74201;-59
2021/10/18 22:44:44;;;;;;;1.65;1.00;;;23.80;37.20;21.10;94680.00;;;;10335379;28;48727;-59
2021/10/18 22:49:45;;;;;;;1.27;0.90;;;23.80;37.20;21.10;94684.00;;;;10352755;28;45698;-60
2021/10/18 22:54:45;;;;;;;1.42;1.05;;;23.70;37.20;21.10;94705.00;;;;10317568;28;74737;-58
2021/10/18 22:59:46;;;;;;;1.70;1.10;;;23.70;37.20;21.10;94705.00;;;;10351665;28;73563;-61
2021/10/18 23:04:47;;;;;;;1.40;0.95;;;23.70;37.20;21.10;94706.00;;;;10334447;28;75649;-60
2021/10/18 23:09:47;;;;;;;2.17;1.17;;;23.70;37.20;21.10;94715.00;;;;10334831;28;60475;-60
2021/10/18 23:14:50;;;;;;;1.45;1.02;;;23.70;37.30;21.10;94711.00;;;;10334096;28;75537;-60